createdAt,value
2023-07-28T00:01:21.687Z,5.80
2023-07-28T00:03:49.207Z,7.05
2023-07-28T00:06:16.456Z,6.85
2023-07-28T00:08:44.300Z,5.65
2023-07-28T00:11:16.351Z,6.20
2023-07-28T00:13:44.499Z,6.05
2023-07-28T00:16:11.826Z,5.80
2023-07-28T00:18:39.424Z,5.68
2023-07-28T00:21:07.041Z,5.65
2023-07-28T00:23:34.492Z,5.88
2023-07-28T00:26:01.642Z,5.80
2023-07-28T00:28:29.022Z,5.57
2023-07-28T00:30:56.149Z,6.15
2023-07-28T00:33:23.564Z,5.95
2023-07-28T00:35:50.999Z,5.57
2023-07-28T00:38:18.519Z,6.00
2023-07-28T00:40:45.614Z,5.88
2023-07-28T00:43:13.771Z,5.82
2023-07-28T00:45:41.104Z,6.10
2023-07-28T00:48:13.262Z,5.63
2023-07-28T00:50:48.874Z,5.28
2023-07-28T00:53:16.914Z,5.75
2023-07-28T00:55:44.084Z,5.25
2023-07-28T00:58:11.329Z,5.05
2023-07-28T01:00:38.601Z,4.63
2023-07-28T01:03:06.064Z,5.20
2023-07-28T01:05:47.228Z,5.30
2023-07-28T01:08:24.252Z,5.53
2023-07-28T01:10:51.784Z,5.10
2023-07-28T01:13:19.325Z,4.03
2023-07-28T01:15:46.377Z,4.28
2023-07-28T01:18:13.713Z,4.78
2023-07-28T01:20:40.856Z,4.00
2023-07-28T01:23:24.541Z,5.00
2023-07-28T01:26:06.405Z,5.00
2023-07-28T01:28:35.354Z,5.20
2023-07-28T01:31:03.592Z,5.28
2023-07-28T01:33:31.265Z,5.32
2023-07-28T01:36:00.091Z,5.47
2023-07-28T01:38:27.956Z,5.50
2023-07-28T01:40:55.255Z,6.45
2023-07-28T01:43:22.714Z,5.30
2023-07-28T01:45:49.887Z,6.18
2023-07-28T01:48:17.381Z,5.78
2023-07-28T01:50:44.578Z,6.03
2023-07-28T01:53:12.017Z,5.50
2023-07-28T01:55:39.342Z,5.35
2023-07-28T01:58:06.745Z,5.80
2023-07-28T02:00:33.910Z,5.45
2023-07-28T02:03:03.841Z,6.03
2023-07-28T02:05:31.566Z,5.50
2023-07-28T02:07:58.929Z,5.60
2023-07-28T02:10:27.943Z,5.30
2023-07-28T02:12:55.283Z,5.60
2023-07-28T02:15:22.494Z,5.72
2023-07-28T02:17:50.357Z,5.10
2023-07-28T02:20:17.561Z,5.60
2023-07-28T02:22:44.960Z,5.90
2023-07-28T02:25:12.259Z,5.10
2023-07-28T02:27:39.738Z,6.05
2023-07-28T02:30:08.020Z,5.65
2023-07-28T02:32:35.863Z,5.55
2023-07-28T02:35:03.419Z,5.47
2023-07-28T02:37:30.763Z,5.00
2023-07-28T02:39:57.797Z,5.22
2023-07-28T02:42:26.325Z,5.35
2023-07-28T02:44:53.542Z,4.93
2023-07-28T02:47:20.785Z,5.43
2023-07-28T02:49:47.995Z,4.55
2023-07-28T02:52:15.423Z,4.97
2023-07-28T02:54:42.769Z,5.35
2023-07-28T02:57:10.373Z,4.40
2023-07-28T02:59:43.138Z,5.13
2023-07-28T03:02:10.885Z,4.63
2023-07-28T03:04:38.005Z,4.55
2023-07-28T03:07:23.800Z,4.65
2023-07-28T03:09:59.906Z,4.50
2023-07-28T03:12:28.213Z,5.03
2023-07-28T03:14:55.597Z,5.00
2023-07-28T03:17:22.938Z,4.47
2023-07-28T03:19:50.180Z,4.35
2023-07-28T03:22:17.498Z,4.90
2023-07-28T03:24:47.306Z,4.93
2023-07-28T03:27:14.867Z,4.90
2023-07-28T03:29:42.182Z,5.22
2023-07-28T03:32:10.001Z,4.35
2023-07-28T03:34:37.266Z,4.85
2023-07-28T03:37:07.613Z,4.55
2023-07-28T03:39:37.480Z,4.88
2023-07-28T03:42:05.048Z,5.00
2023-07-28T03:44:32.389Z,4.50
2023-07-28T03:46:59.793Z,4.97
2023-07-28T03:49:27.100Z,5.00
2023-07-28T03:51:54.531Z,4.57
2023-07-28T03:54:23.415Z,5.00
2023-07-28T03:56:51.016Z,5.10
2023-07-28T03:59:18.071Z,5.97
2023-07-28T04:01:45.495Z,5.10
2023-07-28T04:04:12.705Z,5.30
2023-07-28T04:06:47.792Z,5.05
2023-07-28T04:09:15.814Z,5.80
2023-07-28T04:11:43.491Z,5.22
2023-07-28T04:14:10.616Z,5.45
2023-07-28T04:16:38.398Z,5.65
2023-07-28T04:19:06.585Z,5.47
2023-07-28T04:21:33.914Z,4.78
2023-07-28T04:24:01.229Z,4.88
2023-07-28T04:26:28.767Z,4.50
2023-07-28T04:29:01.495Z,4.50
2023-07-28T04:31:30.376Z,4.82
2023-07-28T04:34:04.288Z,4.13
2023-07-28T04:36:51.955Z,5.25
2023-07-28T04:39:23.789Z,5.07
2023-07-28T04:41:52.201Z,4.63
2023-07-28T04:44:20.648Z,5.13
2023-07-28T04:46:49.554Z,4.85
2023-07-28T04:49:16.945Z,5.20
2023-07-28T04:52:08.138Z,5.88
2023-07-28T04:54:53.956Z,5.00
2023-07-28T04:57:21.742Z,5.47
2023-07-28T04:59:49.336Z,4.80
2023-07-28T05:02:16.896Z,4.80
2023-07-28T05:04:44.220Z,4.78
2023-07-28T05:07:11.805Z,4.70
2023-07-28T05:09:39.294Z,4.72
2023-07-28T05:12:07.141Z,4.82
2023-07-28T05:14:41.850Z,4.95
2023-07-28T05:17:09.548Z,4.97
2023-07-28T05:19:51.916Z,5.45
2023-07-28T05:22:37.884Z,4.95
2023-07-28T05:25:06.193Z,5.78
2023-07-28T05:27:36.139Z,4.80
2023-07-28T05:30:03.469Z,4.25
2023-07-28T05:32:31.067Z,6.03
2023-07-28T05:35:24.541Z,4.78
2023-07-28T05:37:52.244Z,4.68
2023-07-28T05:40:19.851Z,4.55
2023-07-28T05:42:47.772Z,4.70
2023-07-28T05:45:15.331Z,4.57
2023-07-28T05:47:42.834Z,4.93
2023-07-28T05:50:10.464Z,4.70
2023-07-28T05:52:38.382Z,4.32
2023-07-28T05:55:05.923Z,4.47
2023-07-28T05:57:33.636Z,4.40
2023-07-28T06:00:04.965Z,4.78
2023-07-28T06:02:41.331Z,4.78
2023-07-28T06:05:12.883Z,5.22
2023-07-28T06:07:40.250Z,5.53
2023-07-28T06:10:08.912Z,4.95
2023-07-28T06:12:37.584Z,4.68
2023-07-28T06:15:05.111Z,5.03
2023-07-28T06:17:32.702Z,4.63
2023-07-28T06:20:00.573Z,4.85
2023-07-28T06:22:28.144Z,4.60
2023-07-28T06:24:55.341Z,4.50
2023-07-28T06:27:22.767Z,4.40
2023-07-28T06:29:50.046Z,4.45
2023-07-28T06:32:17.800Z,4.70
2023-07-28T06:34:44.959Z,4.72
2023-07-28T06:37:12.545Z,4.47
2023-07-28T06:39:40.779Z,4.82
2023-07-28T06:42:08.954Z,4.60
2023-07-28T06:44:39.160Z,4.70
2023-07-28T06:47:06.741Z,4.75
2023-07-28T06:49:34.038Z,4.63
2023-07-28T06:52:02.277Z,4.13
2023-07-28T06:54:29.496Z,3.83
2023-07-28T06:56:57.164Z,4.10
2023-07-28T06:59:24.479Z,4.15
2023-07-28T07:01:52.072Z,4.18
2023-07-28T07:04:20.234Z,4.38
2023-07-28T07:06:47.923Z,4.03
2023-07-28T07:09:16.035Z,4.15
2023-07-28T07:11:43.743Z,4.38
2023-07-28T07:14:10.799Z,3.83
2023-07-28T07:16:38.576Z,4.15
2023-07-28T07:19:05.894Z,4.25
2023-07-28T07:21:34.299Z,4.20
2023-07-28T07:24:04.322Z,3.88
2023-07-28T07:26:32.601Z,4.63
2023-07-28T07:29:00.187Z,4.40
2023-07-28T07:31:27.879Z,4.82
2023-07-28T07:33:55.251Z,4.50
2023-07-28T07:36:22.876Z,5.25
2023-07-28T07:38:50.397Z,5.20
2023-07-28T07:41:31.248Z,5.22
2023-07-28T07:43:58.628Z,4.93
2023-07-28T07:46:26.318Z,5.32
2023-07-28T07:48:54.204Z,4.53
2023-07-28T07:51:21.712Z,5.05
2023-07-28T07:53:49.036Z,5.20
2023-07-28T07:56:16.897Z,5.47
2023-07-28T07:58:44.250Z,5.68
2023-07-28T08:01:11.928Z,5.50
2023-07-28T08:03:40.239Z,5.63
2023-07-28T08:06:08.086Z,5.75
2023-07-28T08:08:35.361Z,5.70
2023-07-28T08:11:03.580Z,5.60
2023-07-28T08:13:30.802Z,5.57
2023-07-28T08:15:58.653Z,6.22
2023-07-28T08:18:25.968Z,6.53
2023-07-28T08:20:53.523Z,6.32
2023-07-28T08:23:20.835Z,6.95
2023-07-28T08:25:48.674Z,6.47
2023-07-28T08:28:16.345Z,6.70
2023-07-28T08:30:44.165Z,7.05
2023-07-28T08:33:11.467Z,6.30
2023-07-28T08:35:39.165Z,6.18
2023-07-28T08:38:06.463Z,6.10
2023-07-28T08:40:35.572Z,6.13
2023-07-28T08:43:02.898Z,6.40
2023-07-28T08:45:30.672Z,5.82
2023-07-28T08:47:58.622Z,7.15
2023-07-28T08:50:26.360Z,6.88
2023-07-28T08:52:53.683Z,6.22
2023-07-28T08:55:21.561Z,5.30
2023-07-28T08:57:49.419Z,6.20
2023-07-28T09:00:19.105Z,6.00
2023-07-28T09:02:50.398Z,6.18
2023-07-28T09:05:21.957Z,7.32
2023-07-28T09:07:49.371Z,7.22
2023-07-28T09:10:17.054Z,7.10
2023-07-28T09:12:49.633Z,7.10
2023-07-28T09:15:17.870Z,7.22
2023-07-28T09:17:46.194Z,6.93
2023-07-28T09:20:16.298Z,6.82
2023-07-28T09:22:47.545Z,6.93
2023-07-28T09:25:17.164Z,6.80
2023-07-28T09:27:52.056Z,7.13
2023-07-28T09:30:20.977Z,6.90
2023-07-28T09:32:53.131Z,7.70
2023-07-28T09:35:21.763Z,7.05
2023-07-28T09:37:51.230Z,7.05
2023-07-28T09:40:21.052Z,7.13
2023-07-28T09:42:56.647Z,7.35
2023-07-28T09:47:57.661Z,6.70
2023-07-28T09:50:25.587Z,7.20
2023-07-28T09:52:56.036Z,7.75
2023-07-28T09:55:24.209Z,7.25
2023-07-28T09:57:53.588Z,6.60
2023-07-28T10:00:24.538Z,7.28
2023-07-28T10:02:52.685Z,6.88
2023-07-28T10:05:21.733Z,6.72
2023-07-28T10:07:50.744Z,7.00
2023-07-28T10:10:20.231Z,7.57
2023-07-28T10:12:52.159Z,7.18
2023-07-28T10:15:22.092Z,7.22
2023-07-28T10:17:56.509Z,7.72
2023-07-28T10:20:41.411Z,7.95
2023-07-28T10:23:25.701Z,7.78
2023-07-28T10:26:03.143Z,6.75
2023-07-28T10:28:33.532Z,6.93
2023-07-28T10:31:02.841Z,6.68
2023-07-28T10:33:41.482Z,7.03
2023-07-28T10:36:23.417Z,8.57
2023-07-28T10:39:18.798Z,7.70
2023-07-28T10:42:06.135Z,7.60
2023-07-28T10:44:34.410Z,8.70
2023-07-28T10:47:03.013Z,8.25
2023-07-28T10:49:30.789Z,7.95
2023-07-28T10:51:58.568Z,8.40
2023-07-28T10:54:26.486Z,8.00
2023-07-28T10:56:54.255Z,8.52
2023-07-28T10:59:22.408Z,8.52
2023-07-28T11:01:50.137Z,7.88
2023-07-28T11:04:24.594Z,7.78
2023-07-28T11:06:53.029Z,7.07
2023-07-28T11:09:23.284Z,7.22
2023-07-28T11:11:54.513Z,6.70
2023-07-28T11:14:22.113Z,7.47
2023-07-28T11:16:51.468Z,7.68
2023-07-28T11:19:26.170Z,6.90
2023-07-28T11:21:56.420Z,6.90
2023-07-28T11:24:25.314Z,7.10
2023-07-28T11:26:53.416Z,6.38
2023-07-28T11:29:21.251Z,7.38
2023-07-28T11:31:50.075Z,6.75
2023-07-28T11:34:21.118Z,6.75
2023-07-28T11:36:49.129Z,6.88
2023-07-28T11:39:17.830Z,6.60
2023-07-28T11:41:45.962Z,6.50
2023-07-28T11:44:14.223Z,7.22
2023-07-28T11:46:44.072Z,7.03
2023-07-28T11:49:20.456Z,6.72
2023-07-28T11:51:50.422Z,6.53
2023-07-28T11:54:23.345Z,6.85
2023-07-28T11:56:53.188Z,6.70
2023-07-28T11:59:21.054Z,6.53
2023-07-28T12:07:15.200Z,5.53
2023-07-28T12:10:08.442Z,5.57
2023-07-28T12:20:49.030Z,4.40
2023-07-28T12:25:50.423Z,4.00
2023-07-28T12:28:21.107Z,3.65
2023-07-28T12:30:50.832Z,3.45
2023-07-28T12:35:50.681Z,2.88
2023-07-28T12:48:22.401Z,1.75
2023-07-28T12:50:49.764Z,1.73
2023-07-28T12:53:22.052Z,1.35
2023-07-28T13:03:26.507Z,1.50
2023-07-28T13:05:53.895Z,1.50
2023-07-28T13:09:36.303Z,1.73
2023-07-28T13:13:39.946Z,1.50
2023-07-28T13:16:10.144Z,1.60
2023-07-28T13:18:41.080Z,1.33
2023-07-28T13:21:08.511Z,1.35
2023-07-28T13:23:36.107Z,1.30
2023-07-28T13:26:05.708Z,1.30
2023-07-28T13:28:35.391Z,1.42
2023-07-28T13:31:04.450Z,1.35
2023-07-28T13:33:32.328Z,1.45
2023-07-28T13:36:00.416Z,1.60
2023-07-28T13:38:28.006Z,1.40
2023-07-28T13:40:55.363Z,1.77
2023-07-28T13:43:23.126Z,1.60
2023-07-28T13:45:50.480Z,1.70
2023-07-28T13:50:55.616Z,1.70
2023-07-28T13:55:58.251Z,1.30
2023-07-28T13:58:26.401Z,1.20
2023-07-28T14:00:53.954Z,1.42
2023-07-28T14:03:22.023Z,1.55
2023-07-28T14:05:50.122Z,1.75
2023-07-28T14:08:18.889Z,1.38
2023-07-28T14:10:46.948Z,1.30
2023-07-28T14:13:14.924Z,1.35
2023-07-28T14:15:42.719Z,1.30
2023-07-28T14:18:11.112Z,1.45
2023-07-28T14:20:38.893Z,1.25
2023-07-28T14:23:41.947Z,1.38
2023-07-28T14:26:09.281Z,1.65
2023-07-28T14:28:37.029Z,1.50
2023-07-28T14:31:04.402Z,1.90
2023-07-28T14:33:32.271Z,1.33
2023-07-28T14:36:00.323Z,1.27
2023-07-28T14:38:28.107Z,1.88
2023-07-28T14:40:55.692Z,2.17
2023-07-28T14:43:23.846Z,1.90
2023-07-28T14:45:52.552Z,2.25
2023-07-28T14:48:20.396Z,2.00
2023-07-28T14:50:48.453Z,1.88
2023-07-28T14:53:37.278Z,2.28
2023-07-28T14:56:06.444Z,1.90
2023-07-28T14:58:34.981Z,2.00
2023-07-28T15:01:02.527Z,2.30
2023-07-28T15:03:31.884Z,1.95
2023-07-28T15:06:00.844Z,1.85
2023-07-28T15:08:28.916Z,2.30
2023-07-28T15:10:57.277Z,2.38
2023-07-28T15:13:24.958Z,2.08
2023-07-28T15:15:52.379Z,2.13
2023-07-28T15:18:20.138Z,2.65
2023-07-28T15:20:47.623Z,2.88
2023-07-28T15:23:15.539Z,2.80
2023-07-28T15:25:47.183Z,3.17
2023-07-28T15:28:15.691Z,3.70
2023-07-28T15:30:47.673Z,3.03
2023-07-28T15:33:16.500Z,3.00
2023-07-28T15:35:43.954Z,2.63
2023-07-28T15:38:11.644Z,2.30
2023-07-28T15:40:39.583Z,2.05
2023-07-28T15:43:07.444Z,2.25
2023-07-28T15:45:34.976Z,2.15
2023-07-28T15:48:02.880Z,2.08
2023-07-28T15:50:30.383Z,1.60
2023-07-28T15:52:58.187Z,1.65
2023-07-28T15:55:25.583Z,1.45
2023-07-28T15:57:53.246Z,1.75
2023-07-28T16:00:23.572Z,1.55
2023-07-28T16:02:51.494Z,1.40
2023-07-28T16:05:19.068Z,1.52
2023-07-28T16:07:46.827Z,1.40
2023-07-28T16:10:19.149Z,1.20
2023-07-28T16:12:47.651Z,1.17
2023-07-28T16:15:15.072Z,1.20
2023-07-28T16:17:42.904Z,1.20
2023-07-28T16:20:10.580Z,1.20
2023-07-28T16:22:39.787Z,1.00
2023-07-28T16:25:07.678Z,0.80
2023-07-28T16:27:35.254Z,1.33
2023-07-28T16:30:06.693Z,1.20
2023-07-28T16:32:34.607Z,0.90
2023-07-28T16:35:01.974Z,0.85
2023-07-28T16:37:29.659Z,0.77
2023-07-28T16:39:57.912Z,1.17
2023-07-28T16:42:25.755Z,0.80
2023-07-28T16:44:53.194Z,0.88
2023-07-28T16:47:20.772Z,0.77
2023-07-28T16:49:48.269Z,0.73
2023-07-28T16:52:16.016Z,1.10
2023-07-28T16:54:43.387Z,1.20
2023-07-28T16:57:12.800Z,1.30
2023-07-28T16:59:40.241Z,1.10
2023-07-28T17:02:07.818Z,1.42
2023-07-28T17:04:35.219Z,0.95
2023-07-28T17:07:02.999Z,1.17
2023-07-28T17:09:30.407Z,0.95
2023-07-28T17:11:59.595Z,1.00
2023-07-28T17:14:26.915Z,1.20
2023-07-28T17:16:55.864Z,0.88
2023-07-28T17:19:23.251Z,1.00
2023-07-28T17:21:50.933Z,1.10
2023-07-28T17:24:18.448Z,0.95
2023-07-28T17:26:46.166Z,1.20
2023-07-28T17:29:16.157Z,1.23
2023-07-28T17:31:44.209Z,1.00
2023-07-28T17:34:12.126Z,1.10
2023-07-28T17:36:39.880Z,1.10
2023-07-28T17:39:07.776Z,1.23
2023-07-28T17:41:35.664Z,1.15
2023-07-28T17:44:03.267Z,1.45
2023-07-28T17:46:31.039Z,1.25
2023-07-28T17:48:58.570Z,1.23
2023-07-28T17:51:26.074Z,1.40
2023-07-28T17:53:53.397Z,1.42
2023-07-28T17:56:21.559Z,1.90
2023-07-28T17:58:48.948Z,1.80
2023-07-28T18:01:17.385Z,1.80
2023-07-28T18:03:45.497Z,1.48
2023-07-28T18:06:13.189Z,1.70
2023-07-28T18:08:40.514Z,1.77
2023-07-28T18:11:08.110Z,2.17
2023-07-28T18:13:35.384Z,2.17
2023-07-28T18:16:03.097Z,2.50
2023-07-28T18:18:30.420Z,2.20
2023-07-28T18:20:58.066Z,2.13
2023-07-28T18:23:25.458Z,2.50
2023-07-28T18:25:53.092Z,1.98
2023-07-28T18:28:20.487Z,2.70
2023-07-28T18:30:49.152Z,2.55
2023-07-28T18:33:16.566Z,2.92
2023-07-28T18:35:44.508Z,2.38
2023-07-28T18:38:11.748Z,2.70
2023-07-28T18:40:39.411Z,2.55
2023-07-28T18:43:06.752Z,2.40
2023-07-28T18:45:34.345Z,2.00
2023-07-28T18:48:01.765Z,2.25
2023-07-28T18:50:29.281Z,2.53
2023-07-28T18:52:56.553Z,2.38
2023-07-28T18:55:24.150Z,2.40
2023-07-28T18:57:51.406Z,2.35
2023-07-28T19:00:20.199Z,2.50
2023-07-28T19:02:47.462Z,2.50
2023-07-28T19:05:15.411Z,3.05
2023-07-28T19:07:42.696Z,2.80
2023-07-28T19:10:10.700Z,2.90
2023-07-28T19:12:38.069Z,2.60
2023-07-28T19:15:06.544Z,2.97
2023-07-28T19:17:33.886Z,2.75
2023-07-28T19:20:01.926Z,2.90
2023-07-28T19:22:29.369Z,2.75
2023-07-28T19:24:56.965Z,2.92
2023-07-28T19:27:24.308Z,2.65
2023-07-28T19:29:53.447Z,2.95
2023-07-28T19:32:20.821Z,3.03
2023-07-28T19:34:48.453Z,3.20
2023-07-28T19:37:15.681Z,2.80
2023-07-28T19:39:43.475Z,3.40
2023-07-28T19:42:11.029Z,3.00
2023-07-28T19:44:42.585Z,2.97
2023-07-28T19:47:10.663Z,3.22
2023-07-28T19:49:38.319Z,3.60
2023-07-28T19:52:06.213Z,3.75
2023-07-28T19:54:35.986Z,3.55
2023-07-28T19:57:03.377Z,3.75
2023-07-28T19:59:31.052Z,3.38
2023-07-28T20:01:58.433Z,3.13
2023-07-28T20:04:27.480Z,3.35
2023-07-28T20:06:54.946Z,3.65
2023-07-28T20:09:28.313Z,3.95
2023-07-28T20:14:23.429Z,3.60
2023-07-28T20:16:50.870Z,4.10
2023-07-28T20:19:19.463Z,3.67
2023-07-28T20:21:46.974Z,4.40
2023-07-28T20:24:14.648Z,4.07
2023-07-28T20:26:42.058Z,4.20
2023-07-28T20:29:09.735Z,4.07
2023-07-28T20:31:37.142Z,4.57
2023-07-28T20:34:04.876Z,4.00
2023-07-28T20:36:32.347Z,4.63
2023-07-28T20:39:00.252Z,3.90
2023-07-28T20:41:27.671Z,4.43
2023-07-28T20:43:55.453Z,4.40
2023-07-28T20:46:22.896Z,4.10
2023-07-28T20:48:52.182Z,4.03
2023-07-28T20:51:21.376Z,4.18
2023-07-28T20:53:48.995Z,4.57
2023-07-28T20:56:16.355Z,4.57
2023-07-28T20:58:44.246Z,4.13
2023-07-28T21:01:11.619Z,4.50
2023-07-28T21:03:39.465Z,4.32
2023-07-28T21:06:06.933Z,5.38
2023-07-28T21:08:34.949Z,4.72
2023-07-28T21:11:02.183Z,4.28
2023-07-28T21:13:29.903Z,4.50
2023-07-28T21:15:57.227Z,4.88
2023-07-28T21:18:24.959Z,4.63
2023-07-28T21:20:54.985Z,5.20
2023-07-28T21:23:23.118Z,4.68
2023-07-28T21:25:50.292Z,5.35
2023-07-28T21:28:18.036Z,4.78
2023-07-28T21:30:46.469Z,4.93
2023-07-28T21:33:14.112Z,4.75
2023-07-28T21:35:41.665Z,4.88
2023-07-28T21:38:09.219Z,5.50
2023-07-28T21:40:36.639Z,5.95
2023-07-28T21:43:04.250Z,5.65
2023-07-28T21:45:31.504Z,5.20
2023-07-28T21:47:59.205Z,5.60
2023-07-28T21:50:26.697Z,5.03
2023-07-28T21:52:54.363Z,5.10
2023-07-28T21:55:21.655Z,5.38
2023-07-28T21:57:49.567Z,5.72
2023-07-28T22:00:17.235Z,5.38
2023-07-28T22:02:45.285Z,5.32
2023-07-28T22:05:13.240Z,5.82
2023-07-28T22:07:41.380Z,6.32
2023-07-28T22:10:09.230Z,5.43
2023-07-28T22:12:37.367Z,5.60
2023-07-28T22:15:05.677Z,6.03
2023-07-28T22:17:33.593Z,5.80
2023-07-28T22:20:01.333Z,5.43
2023-07-28T22:22:29.083Z,5.28
2023-07-28T22:24:56.543Z,5.40
2023-07-28T22:27:24.340Z,5.55
2023-07-28T22:29:54.410Z,5.60
2023-07-28T22:32:22.134Z,5.30
2023-07-28T22:34:49.316Z,5.53
2023-07-28T22:37:16.967Z,5.88
2023-07-28T22:39:44.533Z,5.95
2023-07-28T22:42:12.230Z,6.10
2023-07-28T22:44:39.513Z,6.22
2023-07-28T22:47:07.303Z,6.45
2023-07-28T22:49:35.295Z,5.93
2023-07-28T22:52:02.963Z,5.45
2023-07-28T22:54:30.321Z,5.22
2023-07-28T22:56:57.981Z,5.88
2023-07-28T22:59:25.292Z,6.32
2023-07-28T23:01:53.017Z,5.88
2023-07-28T23:04:20.400Z,5.47
2023-07-28T23:06:48.225Z,6.05
2023-07-28T23:09:15.762Z,5.75
2023-07-28T23:11:43.486Z,5.25
2023-07-28T23:14:10.774Z,5.43
2023-07-28T23:16:39.036Z,5.45
2023-07-28T23:19:06.816Z,6.65
2023-07-28T23:21:34.482Z,6.07
2023-07-28T23:24:01.800Z,5.93
2023-07-28T23:26:29.401Z,6.85
2023-07-28T23:28:56.678Z,6.43
2023-07-28T23:31:28.782Z,6.72
2023-07-28T23:33:56.455Z,6.40
2023-07-28T23:36:24.983Z,6.70
2023-07-28T23:38:52.347Z,7.68
2023-07-28T23:41:19.955Z,7.68
2023-07-28T23:43:47.420Z,7.18
2023-07-28T23:46:15.152Z,7.38
2023-07-28T23:48:42.561Z,7.18
2023-07-28T23:51:10.150Z,8.13
2023-07-28T23:53:37.505Z,7.63
2023-07-28T23:56:05.026Z,7.00
2023-07-28T23:58:32.501Z,6.75
